createdAt,value
2022-10-04T00:00:04.599Z,16
2022-10-04T00:05:16.709Z,16
2022-10-04T00:10:28.808Z,16
2022-10-04T00:15:41.128Z,16
2022-10-04T00:20:52.870Z,16
2022-10-04T00:26:05.080Z,15
2022-10-04T00:31:17.437Z,15
2022-10-04T00:36:29.629Z,15
2022-10-04T00:41:42.320Z,15
2022-10-04T00:46:54.691Z,15
2022-10-04T00:52:06.510Z,15
2022-10-04T00:57:18.334Z,15
2022-10-04T01:02:30.648Z,15
2022-10-04T01:07:42.730Z,15
2022-10-04T01:12:54.644Z,15
2022-10-04T01:18:10.053Z,15
2022-10-04T01:23:23.406Z,15
2022-10-04T01:28:35.763Z,15
2022-10-04T01:33:47.940Z,15
2022-10-04T01:38:59.810Z,15
2022-10-04T01:44:11.634Z,15
2022-10-04T01:49:23.608Z,15
2022-10-04T01:54:35.300Z,14
2022-10-04T01:59:47.321Z,15
2022-10-04T02:04:59.588Z,15
2022-10-04T02:10:11.592Z,14
2022-10-04T02:15:23.482Z,14
2022-10-04T02:20:35.511Z,15
2022-10-04T02:25:47.377Z,14
2022-10-04T02:31:01.776Z,14
2022-10-04T02:36:13.575Z,14
2022-10-04T02:41:25.387Z,14
2022-10-04T02:46:37.761Z,14
2022-10-04T02:51:50.076Z,14
2022-10-04T02:57:01.838Z,14
2022-10-04T03:02:13.932Z,14
2022-10-04T03:07:26.123Z,14
2022-10-04T03:12:37.963Z,14
2022-10-04T03:17:49.833Z,14
2022-10-04T03:23:01.812Z,14
2022-10-04T03:28:13.859Z,13
2022-10-04T03:33:25.885Z,14
2022-10-04T03:38:37.934Z,14
2022-10-04T03:43:49.876Z,13
2022-10-04T03:49:01.620Z,13
2022-10-04T03:54:13.575Z,13
2022-10-04T03:59:25.753Z,13
2022-10-04T04:04:37.632Z,13
2022-10-04T04:09:49.415Z,13
2022-10-04T04:15:01.379Z,13
2022-10-04T04:20:13.051Z,13
2022-10-04T04:25:25.126Z,13
2022-10-04T04:30:37.110Z,13
2022-10-04T04:35:49.030Z,13
2022-10-04T04:41:01.046Z,13
2022-10-04T04:46:28.741Z,13
2022-10-04T04:51:37.552Z,13
2022-10-04T04:56:49.565Z,13
2022-10-04T05:02:01.549Z,13
2022-10-04T05:07:13.693Z,13
2022-10-04T05:12:25.558Z,13
2022-10-04T05:17:37.471Z,13
2022-10-04T05:22:49.401Z,13
2022-10-04T05:28:04.596Z,13
2022-10-04T05:33:15.900Z,13
2022-10-04T05:38:27.740Z,13
2022-10-04T05:43:39.764Z,13
2022-10-04T05:48:51.741Z,13
2022-10-04T05:54:03.710Z,13
2022-10-04T05:59:15.905Z,13
2022-10-04T06:04:27.949Z,13
2022-10-04T06:09:39.770Z,13
2022-10-04T06:14:51.765Z,13
2022-10-04T06:20:03.709Z,13
2022-10-04T06:25:16.653Z,13
2022-10-04T06:30:28.700Z,13
2022-10-04T06:35:41.018Z,13
2022-10-04T06:40:52.994Z,14
2022-10-04T06:46:05.251Z,14
2022-10-04T06:51:17.528Z,14
2022-10-04T06:56:29.711Z,14
2022-10-04T07:01:43.397Z,14
2022-10-04T07:06:55.831Z,14
2022-10-04T07:12:07.909Z,14
2022-10-04T07:17:19.972Z,14
2022-10-04T07:22:32.000Z,15
2022-10-04T07:27:44.062Z,15
2022-10-04T07:32:56.415Z,14
2022-10-04T07:38:08.756Z,15
2022-10-04T07:43:20.735Z,15
2022-10-04T07:48:32.902Z,15
2022-10-04T07:53:45.039Z,16
2022-10-04T07:58:57.199Z,16
2022-10-04T08:04:09.345Z,16
2022-10-04T08:09:21.522Z,16
2022-10-04T08:14:33.488Z,16
2022-10-04T08:19:45.713Z,17
2022-10-04T08:24:57.911Z,17
2022-10-04T08:30:09.835Z,17
2022-10-04T08:35:21.971Z,17
2022-10-04T08:40:34.212Z,17
2022-10-04T08:45:46.405Z,17
2022-10-04T08:50:58.551Z,18
2022-10-04T08:56:10.588Z,17
2022-10-04T09:01:22.816Z,18
2022-10-04T09:06:34.983Z,18
2022-10-04T09:11:47.109Z,18
2022-10-04T09:16:59.258Z,19
2022-10-04T09:22:11.474Z,19
2022-10-04T09:27:55.687Z,19
2022-10-04T09:33:03.578Z,19
2022-10-04T09:38:15.998Z,20
2022-10-04T09:43:28.177Z,20
2022-10-04T09:48:40.194Z,20
2022-10-04T09:53:52.426Z,20
2022-10-04T09:59:04.740Z,20
2022-10-04T10:04:17.042Z,21
2022-10-04T10:09:29.284Z,21
2022-10-04T10:14:41.581Z,21
2022-10-04T10:19:53.960Z,21
2022-10-04T10:25:06.433Z,21
2022-10-04T10:30:18.712Z,22
2022-10-04T10:35:31.026Z,22
2022-10-04T10:40:43.525Z,22
2022-10-04T10:45:55.957Z,22
2022-10-04T10:51:08.166Z,22
2022-10-04T10:56:20.528Z,22
2022-10-04T11:01:33.271Z,23
2022-10-04T11:12:17.472Z,24
2022-10-04T11:17:32.705Z,28
2022-10-04T11:22:47.687Z,31
2022-10-04T11:28:02.141Z,33
2022-10-04T11:33:15.846Z,33
2022-10-04T11:38:29.385Z,34
2022-10-04T11:43:42.517Z,34
2022-10-04T11:54:06.777Z,33
2022-10-04T11:59:20.078Z,34
2022-10-04T12:14:54.450Z,32
2022-10-04T12:25:17.815Z,32
2022-10-04T12:35:41.979Z,34
2022-10-04T12:40:54.905Z,34
2022-10-04T12:56:27.000Z,33
2022-10-04T13:06:50.825Z,32
2022-10-04T13:12:02.401Z,32
2022-10-04T13:22:58.116Z,31
2022-10-04T13:33:16.318Z,31
2022-10-04T13:59:09.625Z,27
2022-10-04T14:04:22.092Z,27
2022-10-04T14:14:44.643Z,27
2022-10-04T14:25:07.333Z,27
2022-10-04T14:30:19.812Z,26
2022-10-04T14:35:32.104Z,26
2022-10-04T14:40:44.312Z,26
2022-10-04T14:45:57.116Z,26
2022-10-04T14:51:09.513Z,26
2022-10-04T14:56:22.031Z,26
2022-10-04T15:01:34.426Z,26
2022-10-04T15:06:48.572Z,25
2022-10-04T15:13:11.383Z,25
2022-10-04T15:18:18.309Z,25
2022-10-04T15:23:30.117Z,25
2022-10-04T15:28:42.523Z,25
2022-10-04T15:33:54.893Z,25
2022-10-04T15:39:07.254Z,24
2022-10-04T15:44:19.900Z,24
2022-10-04T15:49:32.143Z,24
2022-10-04T15:54:44.539Z,24
2022-10-04T15:59:56.857Z,24
2022-10-04T16:05:09.342Z,23
2022-10-04T16:10:21.449Z,23
2022-10-04T16:15:34.185Z,23
2022-10-04T16:20:46.422Z,23
2022-10-04T16:25:58.622Z,23
2022-10-04T16:36:21.005Z,22
2022-10-04T16:41:33.263Z,22
2022-10-04T16:46:47.354Z,22
2022-10-04T16:51:59.852Z,22
2022-10-04T16:57:12.289Z,22
2022-10-04T17:02:24.282Z,22
2022-10-04T17:07:36.295Z,22
2022-10-04T17:12:48.341Z,22
2022-10-04T17:18:00.496Z,21
2022-10-04T17:23:13.060Z,21
2022-10-04T17:28:25.254Z,21
2022-10-04T17:33:37.415Z,21
2022-10-04T17:38:49.735Z,21
2022-10-04T17:44:02.113Z,21
2022-10-04T17:49:14.216Z,21
2022-10-04T17:54:26.767Z,21
2022-10-04T17:59:38.677Z,20
2022-10-04T18:04:50.953Z,20
2022-10-04T18:10:03.113Z,20
2022-10-04T18:15:15.215Z,20
2022-10-04T18:20:28.498Z,20
2022-10-04T18:25:40.618Z,20
2022-10-04T18:30:52.644Z,19
2022-10-04T18:36:04.935Z,20
2022-10-04T18:41:16.932Z,19
2022-10-04T18:46:29.426Z,19
2022-10-04T18:51:41.589Z,19
2022-10-04T18:56:53.786Z,19
2022-10-04T19:02:06.213Z,19
2022-10-04T19:07:18.588Z,19
2022-10-04T19:12:30.914Z,19
2022-10-04T19:17:43.097Z,19
2022-10-04T19:22:55.493Z,19
2022-10-04T19:28:08.283Z,18
2022-10-04T19:33:28.373Z,18
2022-10-04T19:38:39.501Z,18
2022-10-04T19:43:51.680Z,18
2022-10-04T19:49:03.852Z,18
2022-10-04T19:54:16.999Z,18
2022-10-04T19:59:29.191Z,18
2022-10-04T20:04:41.420Z,18
2022-10-04T20:09:53.228Z,18
2022-10-04T20:15:05.301Z,17
2022-10-04T20:20:17.370Z,18
2022-10-04T20:25:29.336Z,18
2022-10-04T20:30:41.822Z,18
2022-10-04T20:35:53.739Z,17
2022-10-04T20:41:05.670Z,17
2022-10-04T20:46:17.988Z,17
2022-10-04T20:51:30.043Z,17
2022-10-04T20:56:41.897Z,17
2022-10-04T21:01:54.457Z,17
2022-10-04T21:07:06.507Z,17
2022-10-04T21:12:18.437Z,17
2022-10-04T21:17:30.542Z,17
2022-10-04T21:22:42.345Z,17
2022-10-04T21:27:54.401Z,17
2022-10-04T21:33:06.773Z,17
2022-10-04T21:38:20.311Z,17
2022-10-04T21:43:31.773Z,17
2022-10-04T21:48:43.776Z,17
2022-10-04T21:53:55.610Z,17
2022-10-04T21:59:07.443Z,17
2022-10-04T22:04:19.527Z,16
2022-10-04T22:09:31.591Z,16
2022-10-04T22:14:43.477Z,16
2022-10-04T22:19:57.386Z,16
2022-10-04T22:25:08.817Z,16
2022-10-04T22:30:20.591Z,16
2022-10-04T22:35:32.558Z,16
2022-10-04T22:40:44.590Z,16
2022-10-04T22:45:56.642Z,16
2022-10-04T22:51:08.698Z,16
2022-10-04T22:56:20.554Z,16
2022-10-04T23:01:32.473Z,16
2022-10-04T23:06:45.481Z,16
2022-10-04T23:11:57.989Z,16
2022-10-04T23:17:09.869Z,16
2022-10-04T23:22:21.812Z,16
2022-10-04T23:27:34.029Z,16
2022-10-04T23:32:46.805Z,16
2022-10-04T23:37:59.691Z,16
2022-10-04T23:43:11.172Z,16
2022-10-04T23:48:23.197Z,16
2022-10-04T23:53:35.153Z,15
2022-10-04T23:58:47.328Z,15
